sensor_id;sensor_type;location;lat;lon;timestamp;P1;durP1;ratioP1;P2;durP2;ratioP2
68310;SDS011;55157;51.036;17.058;2024-03-02T00:00:32;138.35;;;78.90;;
68310;SDS011;55157;51.036;17.058;2024-03-02T00:02:57;145.75;;;84.20;;
68310;SDS011;55157;51.036;17.058;2024-03-02T00:05:22;136.15;;;82.15;;
68310;SDS011;55157;51.036;17.058;2024-03-02T00:07:52;138.30;;;83.30;;
68310;SDS011;55157;51.036;17.058;2024-03-02T00:10:19;131.73;;;80.05;;
68310;SDS011;55157;51.036;17.058;2024-03-02T00:12:46;131.13;;;81.25;;
68310;SDS011;55157;51.036;17.058;2024-03-02T00:15:20;120.22;;;77.80;;
68310;SDS011;55157;51.036;17.058;2024-03-02T00:17:52;120.72;;;75.50;;
68310;SDS011;55157;51.036;17.058;2024-03-02T00:20:18;113.60;;;75.97;;
68310;SDS011;55157;51.036;17.058;2024-03-02T00:22:46;114.68;;;77.38;;
68310;SDS011;55157;51.036;17.058;2024-03-02T00:25:11;116.68;;;76.93;;
68310;SDS011;55157;51.036;17.058;2024-03-02T00:27:36;115.60;;;78.00;;
68310;SDS011;55157;51.036;17.058;2024-03-02T00:30:32;118.63;;;79.05;;
68310;SDS011;55157;51.036;17.058;2024-03-02T00:32:48;118.35;;;78.13;;
68310;SDS011;55157;51.036;17.058;2024-03-02T00:35:13;114.80;;;77.35;;
68310;SDS011;55157;51.036;17.058;2024-03-02T00:37:39;117.32;;;77.80;;
68310;SDS011;55157;51.036;17.058;2024-03-02T00:40:04;121.63;;;79.65;;
68310;SDS011;55157;51.036;17.058;2024-03-02T00:42:31;115.60;;;77.97;;
68310;SDS011;55157;51.036;17.058;2024-03-02T00:44:56;113.75;;;75.55;;
68310;SDS011;55157;51.036;17.058;2024-03-02T00:47:23;120.35;;;76.20;;
68310;SDS011;55157;51.036;17.058;2024-03-02T00:49:48;118.13;;;75.38;;
68310;SDS011;55157;51.036;17.058;2024-03-02T00:52:13;111.20;;;75.60;;
68310;SDS011;55157;51.036;17.058;2024-03-02T00:54:38;115.47;;;76.68;;
68310;SDS011;55157;51.036;17.058;2024-03-02T00:57:04;119.40;;;76.18;;
68310;SDS011;55157;51.036;17.058;2024-03-02T00:59:29;116.78;;;77.63;;
68310;SDS011;55157;51.036;17.058;2024-03-02T01:01:54;114.03;;;74.70;;
68310;SDS011;55157;51.036;17.058;2024-03-02T01:04:21;105.88;;;74.45;;
68310;SDS011;55157;51.036;17.058;2024-03-02T01:06:46;122.30;;;76.78;;
68310;SDS011;55157;51.036;17.058;2024-03-02T01:09:11;122.95;;;77.13;;
68310;SDS011;55157;51.036;17.058;2024-03-02T01:11:36;115.13;;;74.97;;
68310;SDS011;55157;51.036;17.058;2024-03-02T01:14:02;112.95;;;76.68;;
68310;SDS011;55157;51.036;17.058;2024-03-02T01:16:27;115.53;;;75.85;;
68310;SDS011;55157;51.036;17.058;2024-03-02T01:18:52;108.63;;;73.95;;
68310;SDS011;55157;51.036;17.058;2024-03-02T01:21:19;120.13;;;74.38;;
68310;SDS011;55157;51.036;17.058;2024-03-02T01:23:44;107.35;;;73.18;;
68310;SDS011;55157;51.036;17.058;2024-03-02T01:26:09;109.05;;;73.03;;
68310;SDS011;55157;51.036;17.058;2024-03-02T01:28:35;122.35;;;74.22;;
68310;SDS011;55157;51.036;17.058;2024-03-02T01:31:00;112.32;;;74.10;;
68310;SDS011;55157;51.036;17.058;2024-03-02T01:33:25;115.38;;;76.13;;
68310;SDS011;55157;51.036;17.058;2024-03-02T01:35:50;112.20;;;74.53;;
68310;SDS011;55157;51.036;17.058;2024-03-02T01:38:17;112.03;;;73.97;;
68310;SDS011;55157;51.036;17.058;2024-03-02T01:40:42;113.63;;;77.15;;
68310;SDS011;55157;51.036;17.058;2024-03-02T01:43:08;124.20;;;76.70;;
68310;SDS011;55157;51.036;17.058;2024-03-02T01:45:33;122.95;;;79.20;;
68310;SDS011;55157;51.036;17.058;2024-03-02T01:47:58;129.10;;;78.32;;
68310;SDS011;55157;51.036;17.058;2024-03-02T01:50:24;123.25;;;76.53;;
68310;SDS011;55157;51.036;17.058;2024-03-02T01:52:50;119.93;;;76.90;;
68310;SDS011;55157;51.036;17.058;2024-03-02T01:55:16;116.63;;;76.93;;
68310;SDS011;55157;51.036;17.058;2024-03-02T01:57:41;118.95;;;76.93;;
68310;SDS011;55157;51.036;17.058;2024-03-02T02:00:07;113.15;;;76.00;;
68310;SDS011;55157;51.036;17.058;2024-03-02T02:02:32;113.30;;;76.28;;
68310;SDS011;55157;51.036;17.058;2024-03-02T02:04:58;124.30;;;75.25;;
68310;SDS011;55157;51.036;17.058;2024-03-02T02:07:23;120.30;;;76.50;;
68310;SDS011;55157;51.036;17.058;2024-03-02T02:09:48;117.50;;;74.53;;
68310;SDS011;55157;51.036;17.058;2024-03-02T02:12:15;119.28;;;75.78;;
68310;SDS011;55157;51.036;17.058;2024-03-02T02:14:46;117.90;;;75.63;;
68310;SDS011;55157;51.036;17.058;2024-03-02T02:17:11;120.65;;;79.82;;
68310;SDS011;55157;51.036;17.058;2024-03-02T02:19:37;114.85;;;74.78;;
68310;SDS011;55157;51.036;17.058;2024-03-02T02:22:03;117.80;;;76.30;;
68310;SDS011;55157;51.036;17.058;2024-03-02T02:24:28;116.40;;;76.22;;
68310;SDS011;55157;51.036;17.058;2024-03-02T02:26:54;118.07;;;76.68;;
68310;SDS011;55157;51.036;17.058;2024-03-02T02:29:19;118.20;;;77.47;;
68310;SDS011;55157;51.036;17.058;2024-03-02T02:31:44;118.53;;;74.93;;
68310;SDS011;55157;51.036;17.058;2024-03-02T02:34:09;128.88;;;77.05;;
68310;SDS011;55157;51.036;17.058;2024-03-02T02:36:35;121.22;;;75.25;;
68310;SDS011;55157;51.036;17.058;2024-03-02T02:39:03;116.90;;;75.65;;
68310;SDS011;55157;51.036;17.058;2024-03-02T02:41:29;120.07;;;74.00;;
68310;SDS011;55157;51.036;17.058;2024-03-02T02:43:54;117.93;;;73.78;;
68310;SDS011;55157;51.036;17.058;2024-03-02T02:46:20;124.20;;;78.15;;
68310;SDS011;55157;51.036;17.058;2024-03-02T02:48:45;117.10;;;73.75;;
68310;SDS011;55157;51.036;17.058;2024-03-02T02:51:10;114.00;;;72.13;;
68310;SDS011;55157;51.036;17.058;2024-03-02T02:53:35;115.65;;;74.63;;
68310;SDS011;55157;51.036;17.058;2024-03-02T02:56:02;110.00;;;73.93;;
68310;SDS011;55157;51.036;17.058;2024-03-02T02:58:27;120.60;;;75.22;;
68310;SDS011;55157;51.036;17.058;2024-03-02T03:00:53;124.75;;;75.05;;
68310;SDS011;55157;51.036;17.058;2024-03-02T03:03:18;116.75;;;73.72;;
68310;SDS011;55157;51.036;17.058;2024-03-02T03:05:43;116.82;;;72.97;;
68310;SDS011;55157;51.036;17.058;2024-03-02T03:08:08;122.57;;;76.05;;
68310;SDS011;55157;51.036;17.058;2024-03-02T03:10:34;114.15;;;74.40;;
68310;SDS011;55157;51.036;17.058;2024-03-02T03:13:00;118.25;;;75.82;;
68310;SDS011;55157;51.036;17.058;2024-03-02T03:15:25;123.60;;;76.05;;
68310;SDS011;55157;51.036;17.058;2024-03-02T03:17:51;114.82;;;74.07;;
68310;SDS011;55157;51.036;17.058;2024-03-02T03:20:16;122.25;;;75.10;;
68310;SDS011;55157;51.036;17.058;2024-03-02T03:22:42;122.72;;;76.40;;
68310;SDS011;55157;51.036;17.058;2024-03-02T03:25:07;118.88;;;74.18;;
68310;SDS011;55157;51.036;17.058;2024-03-02T03:27:33;117.38;;;72.22;;
68310;SDS011;55157;51.036;17.058;2024-03-02T03:29:59;115.18;;;73.95;;
68310;SDS011;55157;51.036;17.058;2024-03-02T03:32:24;119.63;;;77.25;;
68310;SDS011;55157;51.036;17.058;2024-03-02T03:34:50;117.47;;;73.38;;
68310;SDS011;55157;51.036;17.058;2024-03-02T03:37:15;112.15;;;71.75;;
68310;SDS011;55157;51.036;17.058;2024-03-02T03:39:40;118.68;;;74.00;;
68310;SDS011;55157;51.036;17.058;2024-03-02T03:42:05;119.35;;;72.43;;
68310;SDS011;55157;51.036;17.058;2024-03-02T03:44:31;111.85;;;72.85;;
68310;SDS011;55157;51.036;17.058;2024-03-02T03:46:57;109.32;;;69.82;;
68310;SDS011;55157;51.036;17.058;2024-03-02T03:49:23;115.20;;;72.88;;
68310;SDS011;55157;51.036;17.058;2024-03-02T03:51:48;114.28;;;71.55;;
68310;SDS011;55157;51.036;17.058;2024-03-02T03:54:13;120.47;;;71.47;;
68310;SDS011;55157;51.036;17.058;2024-03-02T03:56:38;112.50;;;72.78;;
68310;SDS011;55157;51.036;17.058;2024-03-02T03:59:04;110.50;;;71.68;;
68310;SDS011;55157;51.036;17.058;2024-03-02T04:01:29;108.70;;;68.63;;
68310;SDS011;55157;51.036;17.058;2024-03-02T04:03:56;109.47;;;68.65;;
68310;SDS011;55157;51.036;17.058;2024-03-02T04:06:21;106.75;;;68.60;;
68310;SDS011;55157;51.036;17.058;2024-03-02T04:08:46;106.63;;;68.15;;
68310;SDS011;55157;51.036;17.058;2024-03-02T04:11:11;108.75;;;67.90;;
68310;SDS011;55157;51.036;17.058;2024-03-02T04:13:36;108.22;;;72.53;;
68310;SDS011;55157;51.036;17.058;2024-03-02T04:16:02;110.03;;;69.18;;
68310;SDS011;55157;51.036;17.058;2024-03-02T04:18:27;98.07;;;66.05;;
68310;SDS011;55157;51.036;17.058;2024-03-02T04:20:54;110.63;;;67.35;;
68310;SDS011;55157;51.036;17.058;2024-03-02T04:23:19;98.15;;;66.80;;
68310;SDS011;55157;51.036;17.058;2024-03-02T04:25:44;96.25;;;64.00;;
68310;SDS011;55157;51.036;17.058;2024-03-02T04:28:09;97.38;;;63.65;;
68310;SDS011;55157;51.036;17.058;2024-03-02T04:30:35;101.15;;;66.70;;
68310;SDS011;55157;51.036;17.058;2024-03-02T04:33:00;98.55;;;63.88;;
68310;SDS011;55157;51.036;17.058;2024-03-02T04:35:25;103.88;;;63.63;;
68310;SDS011;55157;51.036;17.058;2024-03-02T04:37:52;100.80;;;63.75;;
68310;SDS011;55157;51.036;17.058;2024-03-02T04:40:17;105.55;;;66.93;;
68310;SDS011;55157;51.036;17.058;2024-03-02T04:42:42;99.78;;;64.13;;
68310;SDS011;55157;51.036;17.058;2024-03-02T04:45:08;101.25;;;66.95;;
68310;SDS011;55157;51.036;17.058;2024-03-02T04:47:33;100.40;;;67.20;;
68310;SDS011;55157;51.036;17.058;2024-03-02T04:49:58;98.50;;;63.05;;
68310;SDS011;55157;51.036;17.058;2024-03-02T04:52:23;100.72;;;63.30;;
68310;SDS011;55157;51.036;17.058;2024-03-02T04:54:50;96.28;;;65.25;;
68310;SDS011;55157;51.036;17.058;2024-03-02T04:57:15;100.60;;;64.05;;
68310;SDS011;55157;51.036;17.058;2024-03-02T04:59:40;107.95;;;64.80;;
68310;SDS011;55157;51.036;17.058;2024-03-02T05:02:06;103.20;;;63.30;;
68310;SDS011;55157;51.036;17.058;2024-03-02T05:04:31;98.13;;;61.60;;
68310;SDS011;55157;51.036;17.058;2024-03-02T05:06:56;100.53;;;60.58;;
68310;SDS011;55157;51.036;17.058;2024-03-02T05:09:21;102.57;;;63.45;;
68310;SDS011;55157;51.036;17.058;2024-03-02T05:11:48;106.07;;;62.25;;
68310;SDS011;55157;51.036;17.058;2024-03-02T05:14:13;97.60;;;62.85;;
68310;SDS011;55157;51.036;17.058;2024-03-02T05:16:38;100.97;;;60.80;;
68310;SDS011;55157;51.036;17.058;2024-03-02T05:19:04;97.68;;;62.03;;
68310;SDS011;55157;51.036;17.058;2024-03-02T05:21:29;107.93;;;62.85;;
68310;SDS011;55157;51.036;17.058;2024-03-02T05:23:54;93.85;;;59.58;;
68310;SDS011;55157;51.036;17.058;2024-03-02T05:26:20;97.68;;;62.08;;
68310;SDS011;55157;51.036;17.058;2024-03-02T05:28:46;100.15;;;59.83;;
68310;SDS011;55157;51.036;17.058;2024-03-02T05:31:11;91.78;;;59.45;;
68310;SDS011;55157;51.036;17.058;2024-03-02T05:33:39;87.97;;;59.25;;
68310;SDS011;55157;51.036;17.058;2024-03-02T05:36:05;110.53;;;63.25;;
68310;SDS011;55157;51.036;17.058;2024-03-02T05:38:30;96.07;;;61.42;;
68310;SDS011;55157;51.036;17.058;2024-03-02T05:40:55;99.30;;;62.05;;
68310;SDS011;55157;51.036;17.058;2024-03-02T05:43:20;100.03;;;60.17;;
68310;SDS011;55157;51.036;17.058;2024-03-02T05:45:47;104.95;;;60.83;;
68310;SDS011;55157;51.036;17.058;2024-03-02T05:48:12;106.18;;;63.38;;
68310;SDS011;55157;51.036;17.058;2024-03-02T05:50:38;100.57;;;60.30;;
68310;SDS011;55157;51.036;17.058;2024-03-02T05:53:03;100.97;;;64.63;;
68310;SDS011;55157;51.036;17.058;2024-03-02T05:55:28;101.90;;;63.95;;
68310;SDS011;55157;51.036;17.058;2024-03-02T05:57:54;96.03;;;63.28;;
68310;SDS011;55157;51.036;17.058;2024-03-02T06:00:19;98.07;;;62.40;;
68310;SDS011;55157;51.036;17.058;2024-03-02T06:02:46;96.65;;;60.75;;
68310;SDS011;55157;51.036;17.058;2024-03-02T06:05:11;96.78;;;61.45;;
68310;SDS011;55157;51.036;17.058;2024-03-02T06:07:36;105.35;;;64.28;;
68310;SDS011;55157;51.036;17.058;2024-03-02T06:10:01;96.88;;;63.30;;
68310;SDS011;55157;51.036;17.058;2024-03-02T06:12:27;93.65;;;60.17;;
68310;SDS011;55157;51.036;17.058;2024-03-02T06:14:52;100.70;;;63.00;;
68310;SDS011;55157;51.036;17.058;2024-03-02T06:17:17;99.75;;;63.08;;
68310;SDS011;55157;51.036;17.058;2024-03-02T06:19:44;97.75;;;62.28;;
68310;SDS011;55157;51.036;17.058;2024-03-02T06:22:09;99.72;;;61.72;;
68310;SDS011;55157;51.036;17.058;2024-03-02T06:24:35;86.88;;;59.30;;
68310;SDS011;55157;51.036;17.058;2024-03-02T06:27:00;94.68;;;60.65;;
68310;SDS011;55157;51.036;17.058;2024-03-02T06:29:26;98.35;;;62.50;;
68310;SDS011;55157;51.036;17.058;2024-03-02T06:31:51;95.65;;;62.67;;
68310;SDS011;55157;51.036;17.058;2024-03-02T06:34:16;95.10;;;63.13;;
68310;SDS011;55157;51.036;17.058;2024-03-02T06:36:43;95.45;;;61.85;;
68310;SDS011;55157;51.036;17.058;2024-03-02T06:39:08;99.20;;;61.17;;
68310;SDS011;55157;51.036;17.058;2024-03-02T06:41:33;93.28;;;60.15;;
68310;SDS011;55157;51.036;17.058;2024-03-02T06:43:59;102.68;;;59.78;;
68310;SDS011;55157;51.036;17.058;2024-03-02T06:46:24;89.97;;;59.22;;
68310;SDS011;55157;51.036;17.058;2024-03-02T06:48:49;94.72;;;60.55;;
68310;SDS011;55157;51.036;17.058;2024-03-02T06:51:14;101.70;;;62.22;;
68310;SDS011;55157;51.036;17.058;2024-03-02T06:53:41;99.63;;;62.35;;
68310;SDS011;55157;51.036;17.058;2024-03-02T06:56:06;93.13;;;60.05;;
68310;SDS011;55157;51.036;17.058;2024-03-02T06:58:32;91.07;;;62.55;;
68310;SDS011;55157;51.036;17.058;2024-03-02T07:00:57;96.97;;;61.47;;
68310;SDS011;55157;51.036;17.058;2024-03-02T07:03:22;96.55;;;63.58;;
68310;SDS011;55157;51.036;17.058;2024-03-02T07:05:47;96.07;;;67.25;;
68310;SDS011;55157;51.036;17.058;2024-03-02T07:08:13;88.82;;;60.40;;
68310;SDS011;55157;51.036;17.058;2024-03-02T07:10:39;98.20;;;62.15;;
68310;SDS011;55157;51.036;17.058;2024-03-02T07:13:04;94.43;;;61.20;;
68310;SDS011;55157;51.036;17.058;2024-03-02T07:15:30;87.60;;;58.45;;
68310;SDS011;55157;51.036;17.058;2024-03-02T07:17:55;88.03;;;56.75;;
68310;SDS011;55157;51.036;17.058;2024-03-02T07:20:20;88.28;;;55.95;;
68310;SDS011;55157;51.036;17.058;2024-03-02T07:22:45;82.40;;;52.38;;
68310;SDS011;55157;51.036;17.058;2024-03-02T07:25:11;80.55;;;51.95;;
68310;SDS011;55157;51.036;17.058;2024-03-02T07:27:37;81.57;;;52.00;;
68310;SDS011;55157;51.036;17.058;2024-03-02T07:30:03;74.03;;;49.65;;
68310;SDS011;55157;51.036;17.058;2024-03-02T07:32:28;73.35;;;48.45;;
68310;SDS011;55157;51.036;17.058;2024-03-02T07:34:54;72.35;;;47.63;;
68310;SDS011;55157;51.036;17.058;2024-03-02T07:37:19;72.85;;;49.33;;
68310;SDS011;55157;51.036;17.058;2024-03-02T07:39:44;72.75;;;48.80;;
68310;SDS011;55157;51.036;17.058;2024-03-02T07:42:09;77.10;;;49.25;;
68310;SDS011;55157;51.036;17.058;2024-03-02T07:44:36;74.97;;;47.42;;
68310;SDS011;55157;51.036;17.058;2024-03-02T07:47:01;73.93;;;48.03;;
68310;SDS011;55157;51.036;17.058;2024-03-02T07:49:26;71.07;;;48.33;;
68310;SDS011;55157;51.036;17.058;2024-03-02T07:51:52;76.25;;;49.40;;
68310;SDS011;55157;51.036;17.058;2024-03-02T07:54:17;76.93;;;48.70;;
68310;SDS011;55157;51.036;17.058;2024-03-02T07:56:42;72.80;;;48.53;;
68310;SDS011;55157;51.036;17.058;2024-03-02T07:59:07;70.70;;;48.13;;
68310;SDS011;55157;51.036;17.058;2024-03-02T08:01:34;70.25;;;48.15;;
68310;SDS011;55157;51.036;17.058;2024-03-02T08:04:00;72.28;;;48.28;;
68310;SDS011;55157;51.036;17.058;2024-03-02T08:06:25;71.22;;;48.35;;
68310;SDS011;55157;51.036;17.058;2024-03-02T08:08:51;73.57;;;48.63;;
68310;SDS011;55157;51.036;17.058;2024-03-02T08:11:16;79.13;;;49.75;;
68310;SDS011;55157;51.036;17.058;2024-03-02T08:13:41;76.47;;;50.35;;
68310;SDS011;55157;51.036;17.058;2024-03-02T08:16:06;76.28;;;49.58;;
68310;SDS011;55157;51.036;17.058;2024-03-02T08:18:33;76.15;;;50.47;;
68310;SDS011;55157;51.036;17.058;2024-03-02T08:20:59;80.95;;;50.58;;
68310;SDS011;55157;51.036;17.058;2024-03-02T08:23:24;80.97;;;47.67;;
68310;SDS011;55157;51.036;17.058;2024-03-02T08:25:49;77.43;;;49.97;;
68310;SDS011;55157;51.036;17.058;2024-03-02T08:28:15;76.40;;;49.35;;
68310;SDS011;55157;51.036;17.058;2024-03-02T08:30:40;71.00;;;47.83;;
68310;SDS011;55157;51.036;17.058;2024-03-02T08:33:05;71.47;;;46.65;;
68310;SDS011;55157;51.036;17.058;2024-03-02T08:35:32;71.60;;;46.63;;
68310;SDS011;55157;51.036;17.058;2024-03-02T08:37:57;63.30;;;45.30;;
68310;SDS011;55157;51.036;17.058;2024-03-02T08:40:22;61.47;;;44.25;;
68310;SDS011;55157;51.036;17.058;2024-03-02T08:42:48;62.85;;;43.17;;
68310;SDS011;55157;51.036;17.058;2024-03-02T08:45:13;67.38;;;43.08;;
68310;SDS011;55157;51.036;17.058;2024-03-02T08:47:38;61.75;;;41.10;;
68310;SDS011;55157;51.036;17.058;2024-03-02T08:50:04;60.65;;;40.83;;
68310;SDS011;55157;51.036;17.058;2024-03-02T08:52:31;59.45;;;40.22;;
68310;SDS011;55157;51.036;17.058;2024-03-02T08:54:56;70.45;;;41.05;;
68310;SDS011;55157;51.036;17.058;2024-03-02T08:57:21;65.00;;;42.13;;
68310;SDS011;55157;51.036;17.058;2024-03-02T08:59:46;63.00;;;43.33;;
68310;SDS011;55157;51.036;17.058;2024-03-02T09:02:11;61.17;;;41.17;;
68310;SDS011;55157;51.036;17.058;2024-03-02T09:04:37;59.72;;;41.67;;
68310;SDS011;55157;51.036;17.058;2024-03-02T09:07:02;55.67;;;41.25;;
68310;SDS011;55157;51.036;17.058;2024-03-02T09:09:29;53.22;;;38.72;;
68310;SDS011;55157;51.036;17.058;2024-03-02T09:11:54;61.75;;;39.90;;
68310;SDS011;55157;51.036;17.058;2024-03-02T09:14:19;58.65;;;40.08;;
68310;SDS011;55157;51.036;17.058;2024-03-02T09:16:45;57.75;;;40.75;;
68310;SDS011;55157;51.036;17.058;2024-03-02T09:19:10;58.92;;;41.05;;
68310;SDS011;55157;51.036;17.058;2024-03-02T09:21:35;60.55;;;39.95;;
68310;SDS011;55157;51.036;17.058;2024-03-02T09:24:01;52.63;;;39.03;;
68310;SDS011;55157;51.036;17.058;2024-03-02T09:26:27;52.97;;;39.00;;
68310;SDS011;55157;51.036;17.058;2024-03-02T09:28:53;70.63;;;39.30;;
68310;SDS011;55157;51.036;17.058;2024-03-02T09:31:18;62.45;;;39.10;;
68310;SDS011;55157;51.036;17.058;2024-03-02T09:33:43;55.80;;;38.67;;
68310;SDS011;55157;51.036;17.058;2024-03-02T09:36:16;49.67;;;37.97;;
68310;SDS011;55157;51.036;17.058;2024-03-02T09:38:41;61.15;;;39.78;;
68310;SDS011;55157;51.036;17.058;2024-03-02T09:41:06;61.90;;;39.67;;
68310;SDS011;55157;51.036;17.058;2024-03-02T09:43:33;52.10;;;37.13;;
68310;SDS011;55157;51.036;17.058;2024-03-02T09:45:59;54.28;;;38.05;;
68310;SDS011;55157;51.036;17.058;2024-03-02T09:48:24;51.40;;;37.58;;
68310;SDS011;55157;51.036;17.058;2024-03-02T09:50:49;59.00;;;36.92;;
68310;SDS011;55157;51.036;17.058;2024-03-02T09:53:15;49.67;;;36.95;;
68310;SDS011;55157;51.036;17.058;2024-03-02T09:55:40;61.92;;;39.70;;
68310;SDS011;55157;51.036;17.058;2024-03-02T09:58:05;49.72;;;37.35;;
68310;SDS011;55157;51.036;17.058;2024-03-02T10:00:32;51.88;;;39.63;;
68310;SDS011;55157;51.036;17.058;2024-03-02T10:02:57;51.47;;;39.22;;
68310;SDS011;55157;51.036;17.058;2024-03-02T10:05:26;56.15;;;37.63;;
68310;SDS011;55157;51.036;17.058;2024-03-02T10:07:58;54.00;;;38.03;;
68310;SDS011;55157;51.036;17.058;2024-03-02T10:10:23;52.33;;;36.30;;
68310;SDS011;55157;51.036;17.058;2024-03-02T10:12:49;54.13;;;37.45;;
68310;SDS011;55157;51.036;17.058;2024-03-02T10:15:28;51.05;;;35.33;;
68310;SDS011;55157;51.036;17.058;2024-03-02T10:17:54;52.88;;;37.03;;
68310;SDS011;55157;51.036;17.058;2024-03-02T10:20:23;49.47;;;34.97;;
68310;SDS011;55157;51.036;17.058;2024-03-02T10:22:48;50.15;;;33.28;;
68310;SDS011;55157;51.036;17.058;2024-03-02T10:25:27;45.25;;;31.65;;
68310;SDS011;55157;51.036;17.058;2024-03-02T10:27:53;49.88;;;32.72;;
68310;SDS011;55157;51.036;17.058;2024-03-02T10:30:18;42.45;;;31.27;;
68310;SDS011;55157;51.036;17.058;2024-03-02T10:32:43;49.40;;;31.80;;
68310;SDS011;55157;51.036;17.058;2024-03-02T10:35:10;40.90;;;30.30;;
68310;SDS011;55157;51.036;17.058;2024-03-02T10:37:35;40.75;;;30.13;;
68310;SDS011;55157;51.036;17.058;2024-03-02T10:40:04;42.05;;;31.70;;
68310;SDS011;55157;51.036;17.058;2024-03-02T10:42:29;44.78;;;32.85;;
68310;SDS011;55157;51.036;17.058;2024-03-02T10:44:55;50.70;;;33.67;;
68310;SDS011;55157;51.036;17.058;2024-03-02T10:47:21;52.03;;;31.05;;
68310;SDS011;55157;51.036;17.058;2024-03-02T10:49:48;43.00;;;31.45;;
68310;SDS011;55157;51.036;17.058;2024-03-02T10:52:17;40.90;;;29.13;;
68310;SDS011;55157;51.036;17.058;2024-03-02T10:54:42;46.97;;;31.20;;
68310;SDS011;55157;51.036;17.058;2024-03-02T10:57:08;50.10;;;32.85;;
68310;SDS011;55157;51.036;17.058;2024-03-02T10:59:35;45.55;;;31.52;;
68310;SDS011;55157;51.036;17.058;2024-03-02T11:02:01;47.30;;;31.55;;
68310;SDS011;55157;51.036;17.058;2024-03-02T11:04:27;43.97;;;29.48;;
68310;SDS011;55157;51.036;17.058;2024-03-02T11:06:54;46.08;;;30.60;;
68310;SDS011;55157;51.036;17.058;2024-03-02T11:09:23;39.70;;;28.55;;
68310;SDS011;55157;51.036;17.058;2024-03-02T11:11:56;47.03;;;30.77;;
68310;SDS011;55157;51.036;17.058;2024-03-02T11:14:25;41.80;;;27.65;;
68310;SDS011;55157;51.036;17.058;2024-03-02T11:16:50;43.65;;;28.65;;
68310;SDS011;55157;51.036;17.058;2024-03-02T11:19:16;45.08;;;28.13;;
68310;SDS011;55157;51.036;17.058;2024-03-02T11:21:42;43.92;;;28.48;;
68310;SDS011;55157;51.036;17.058;2024-03-02T11:26:53;40.70;;;27.58;;
68310;SDS011;55157;51.036;17.058;2024-03-02T11:29:33;43.95;;;28.00;;
68310;SDS011;55157;51.036;17.058;2024-03-02T11:32:13;44.72;;;26.77;;
68310;SDS011;55157;51.036;17.058;2024-03-02T11:34:38;41.85;;;27.38;;
68310;SDS011;55157;51.036;17.058;2024-03-02T11:37:05;44.63;;;28.08;;
68310;SDS011;55157;51.036;17.058;2024-03-02T11:39:31;46.92;;;28.38;;
68310;SDS011;55157;51.036;17.058;2024-03-02T11:41:57;47.53;;;28.35;;
68310;SDS011;55157;51.036;17.058;2024-03-02T11:44:24;42.67;;;25.52;;
68310;SDS011;55157;51.036;17.058;2024-03-02T11:46:51;40.78;;;25.42;;
68310;SDS011;55157;51.036;17.058;2024-03-02T11:49:18;33.38;;;24.60;;
68310;SDS011;55157;51.036;17.058;2024-03-02T11:51:50;42.03;;;23.80;;
68310;SDS011;55157;51.036;17.058;2024-03-02T11:54:18;37.38;;;22.20;;
68310;SDS011;55157;51.036;17.058;2024-03-02T11:56:43;39.08;;;23.33;;
68310;SDS011;55157;51.036;17.058;2024-03-02T11:59:10;37.72;;;23.60;;
68310;SDS011;55157;51.036;17.058;2024-03-02T12:01:35;39.72;;;23.20;;
68310;SDS011;55157;51.036;17.058;2024-03-02T12:04:00;36.28;;;23.63;;
68310;SDS011;55157;51.036;17.058;2024-03-02T12:06:26;34.60;;;23.15;;
68310;SDS011;55157;51.036;17.058;2024-03-02T12:08:52;42.53;;;24.95;;
68310;SDS011;55157;51.036;17.058;2024-03-02T12:11:17;39.85;;;24.05;;
68310;SDS011;55157;51.036;17.058;2024-03-02T12:13:51;38.53;;;24.33;;
68310;SDS011;55157;51.036;17.058;2024-03-02T12:16:23;43.65;;;24.15;;
68310;SDS011;55157;51.036;17.058;2024-03-02T12:18:48;37.63;;;22.85;;
68310;SDS011;55157;51.036;17.058;2024-03-02T12:21:14;32.47;;;22.73;;
68310;SDS011;55157;51.036;17.058;2024-03-02T12:23:39;37.05;;;24.20;;
68310;SDS011;55157;51.036;17.058;2024-03-02T12:26:04;36.97;;;24.25;;
68310;SDS011;55157;51.036;17.058;2024-03-02T12:28:29;32.83;;;24.02;;
68310;SDS011;55157;51.036;17.058;2024-03-02T12:30:55;33.70;;;22.10;;
68310;SDS011;55157;51.036;17.058;2024-03-02T12:33:21;34.72;;;23.45;;
68310;SDS011;55157;51.036;17.058;2024-03-02T12:35:48;34.80;;;21.80;;
68310;SDS011;55157;51.036;17.058;2024-03-02T12:38:13;35.67;;;21.52;;
68310;SDS011;55157;51.036;17.058;2024-03-02T12:40:39;32.25;;;21.20;;
68310;SDS011;55157;51.036;17.058;2024-03-02T12:43:05;30.30;;;20.98;;
68310;SDS011;55157;51.036;17.058;2024-03-02T12:45:30;29.30;;;21.75;;
68310;SDS011;55157;51.036;17.058;2024-03-02T12:47:55;36.90;;;21.98;;
68310;SDS011;55157;51.036;17.058;2024-03-02T12:50:22;35.90;;;22.60;;
68310;SDS011;55157;51.036;17.058;2024-03-02T12:52:51;34.15;;;22.83;;
68310;SDS011;55157;51.036;17.058;2024-03-02T12:55:16;34.03;;;21.88;;
68310;SDS011;55157;51.036;17.058;2024-03-02T12:57:41;33.72;;;20.45;;
68310;SDS011;55157;51.036;17.058;2024-03-02T13:00:07;25.02;;;18.27;;
68310;SDS011;55157;51.036;17.058;2024-03-02T13:02:32;35.58;;;22.08;;
68310;SDS011;55157;51.036;17.058;2024-03-02T13:04:58;34.70;;;22.30;;
68310;SDS011;55157;51.036;17.058;2024-03-02T13:07:25;34.90;;;21.20;;
68310;SDS011;55157;51.036;17.058;2024-03-02T13:09:50;27.05;;;20.30;;
68310;SDS011;55157;51.036;17.058;2024-03-02T13:12:15;23.38;;;18.70;;
68310;SDS011;55157;51.036;17.058;2024-03-02T13:14:41;37.85;;;19.85;;
68310;SDS011;55157;51.036;17.058;2024-03-02T13:17:07;28.20;;;19.17;;
68310;SDS011;55157;51.036;17.058;2024-03-02T13:19:33;38.65;;;20.77;;
68310;SDS011;55157;51.036;17.058;2024-03-02T13:21:58;27.13;;;19.85;;
68310;SDS011;55157;51.036;17.058;2024-03-02T13:24:25;30.15;;;19.63;;
68310;SDS011;55157;51.036;17.058;2024-03-02T13:26:50;35.45;;;20.33;;
68310;SDS011;55157;51.036;17.058;2024-03-02T13:29:15;41.45;;;20.83;;
68310;SDS011;55157;51.036;17.058;2024-03-02T13:31:40;32.80;;;20.48;;
68310;SDS011;55157;51.036;17.058;2024-03-02T13:34:06;38.65;;;19.50;;
68310;SDS011;55157;51.036;17.058;2024-03-02T13:36:31;38.10;;;21.17;;
68310;SDS011;55157;51.036;17.058;2024-03-02T13:38:56;38.25;;;21.20;;
68310;SDS011;55157;51.036;17.058;2024-03-02T13:41:23;36.58;;;19.33;;
68310;SDS011;55157;51.036;17.058;2024-03-02T13:43:48;29.05;;;20.33;;
68310;SDS011;55157;51.036;17.058;2024-03-02T13:46:13;30.15;;;18.88;;
68310;SDS011;55157;51.036;17.058;2024-03-02T13:48:38;37.58;;;20.92;;
68310;SDS011;55157;51.036;17.058;2024-03-02T13:51:04;32.28;;;19.88;;
68310;SDS011;55157;51.036;17.058;2024-03-02T13:53:29;35.72;;;22.17;;
68310;SDS011;55157;51.036;17.058;2024-03-02T13:55:54;38.05;;;23.90;;
68310;SDS011;55157;51.036;17.058;2024-03-02T13:58:21;31.92;;;21.85;;